createdAt,value
2019-01-18T00:00:55.208Z,3.83
2019-01-18T00:03:58.648Z,4.03
2019-01-18T00:07:02.057Z,4.20
2019-01-18T00:10:08.573Z,4.03
2019-01-18T00:13:11.977Z,4.77
2019-01-18T00:16:15.412Z,4.00
2019-01-18T00:19:18.896Z,4.37
2019-01-18T00:22:22.339Z,4.70
2019-01-18T00:25:25.748Z,4.57
2019-01-18T00:28:29.171Z,4.37
2019-01-18T00:31:32.603Z,4.90
2019-01-18T00:34:36.021Z,4.80
2019-01-18T00:37:39.460Z,4.83
2019-01-18T00:40:42.864Z,4.43
2019-01-18T00:43:46.288Z,4.90
2019-01-18T00:46:49.713Z,4.93
2019-01-18T00:49:53.152Z,5.13
2019-01-18T00:52:56.553Z,5.17
2019-01-18T00:55:59.988Z,5.47
2019-01-18T00:59:03.668Z,4.90
2019-01-18T01:02:07.120Z,5.23
2019-01-18T01:05:10.666Z,5.57
2019-01-18T01:08:14.101Z,5.00
2019-01-18T01:11:17.520Z,5.23
2019-01-18T01:14:20.956Z,5.33
2019-01-18T01:17:24.360Z,4.90
2019-01-18T01:20:27.812Z,4.90
2019-01-18T01:23:31.233Z,4.23
2019-01-18T01:26:34.661Z,4.60
2019-01-18T01:29:43.097Z,4.10
2019-01-18T01:32:43.229Z,4.10
2019-01-18T01:35:46.667Z,4.37
2019-01-18T01:38:50.077Z,4.77
2019-01-18T01:41:53.533Z,4.27
2019-01-18T01:44:57.016Z,4.43
2019-01-18T01:48:00.456Z,4.10
2019-01-18T01:51:04.032Z,4.27
2019-01-18T01:54:07.441Z,4.00
2019-01-18T01:57:10.885Z,3.97
2019-01-18T02:00:16.636Z,2.07
2019-01-18T02:03:20.072Z,1.80
2019-01-18T02:06:23.480Z,1.83
2019-01-18T02:09:26.930Z,1.70
2019-01-18T02:12:30.338Z,1.67
2019-01-18T02:15:33.844Z,1.70
2019-01-18T02:18:37.257Z,1.70
2019-01-18T02:21:40.697Z,1.83
2019-01-18T02:24:44.113Z,1.90
2019-01-18T02:27:47.712Z,2.00
2019-01-18T02:30:51.167Z,1.67
2019-01-18T02:33:54.592Z,2.27
2019-01-18T02:36:58.020Z,1.80
2019-01-18T02:40:01.469Z,2.10
2019-01-18T02:43:05.047Z,1.70
2019-01-18T02:46:08.490Z,2.10
2019-01-18T02:49:11.897Z,2.10
2019-01-18T02:52:15.365Z,1.70
2019-01-18T02:55:18.764Z,2.00
2019-01-18T02:58:22.212Z,1.50
2019-01-18T03:01:25.625Z,1.90
2019-01-18T03:04:29.100Z,1.80
2019-01-18T03:07:32.506Z,1.37
2019-01-18T03:10:35.958Z,1.40
2019-01-18T03:13:39.365Z,1.30
2019-01-18T03:16:42.805Z,1.70
2019-01-18T03:19:46.217Z,1.50
2019-01-18T03:22:49.651Z,1.30
2019-01-18T03:25:53.089Z,1.40
2019-01-18T03:28:56.532Z,1.70
2019-01-18T03:31:59.974Z,1.40
2019-01-18T03:35:03.513Z,1.60
2019-01-18T03:38:06.926Z,1.50
2019-01-18T03:41:10.355Z,1.93
2019-01-18T03:44:13.768Z,1.83
2019-01-18T03:47:17.208Z,1.80
2019-01-18T03:50:22.563Z,1.57
2019-01-18T03:53:26.010Z,2.20
2019-01-18T03:56:29.440Z,1.93
2019-01-18T03:59:32.895Z,1.87
2019-01-18T04:02:36.421Z,1.90
2019-01-18T04:05:39.885Z,1.83
2019-01-18T04:08:43.292Z,2.00
2019-01-18T04:11:46.728Z,2.00
2019-01-18T04:14:50.146Z,1.97
2019-01-18T04:17:53.666Z,1.73
2019-01-18T04:20:57.089Z,1.90
2019-01-18T04:24:00.605Z,1.70
2019-01-18T04:27:04.117Z,2.07
2019-01-18T04:30:13.328Z,2.10
2019-01-18T04:33:16.736Z,2.23
2019-01-18T04:36:20.209Z,2.37
2019-01-18T04:39:23.669Z,2.03
2019-01-18T04:42:27.100Z,2.10
2019-01-18T04:45:30.549Z,2.60
2019-01-18T04:48:33.986Z,2.13
2019-01-18T04:51:37.426Z,2.80
2019-01-18T04:54:40.908Z,2.23
2019-01-18T04:57:44.384Z,2.17
2019-01-18T05:00:47.820Z,2.90
2019-01-18T05:03:51.262Z,2.50
2019-01-18T05:06:54.712Z,2.63
2019-01-18T05:09:58.128Z,2.70
2019-01-18T05:13:01.659Z,2.63
2019-01-18T05:16:06.832Z,2.27
2019-01-18T05:19:10.300Z,2.93
2019-01-18T05:22:13.824Z,2.83
2019-01-18T05:25:17.301Z,2.60
2019-01-18T05:28:20.731Z,2.53
2019-01-18T05:31:24.168Z,2.47
2019-01-18T05:34:27.611Z,2.57
2019-01-18T05:37:31.041Z,2.67
2019-01-18T05:40:34.499Z,2.77
2019-01-18T05:43:37.896Z,2.90
2019-01-18T05:46:41.328Z,3.80
2019-01-18T05:49:44.739Z,3.53
2019-01-18T05:52:48.200Z,3.27
2019-01-18T05:55:51.613Z,3.20
2019-01-18T05:58:55.057Z,3.10
2019-01-18T06:01:58.460Z,3.03
2019-01-18T06:05:02.298Z,3.20
2019-01-18T06:08:05.889Z,3.07
2019-01-18T06:11:09.339Z,2.90
2019-01-18T06:14:12.752Z,2.43
2019-01-18T06:17:16.206Z,2.83
2019-01-18T06:20:19.638Z,2.77
2019-01-18T06:23:23.114Z,2.77
2019-01-18T06:26:26.516Z,3.00
2019-01-18T06:29:29.996Z,3.10
2019-01-18T06:32:33.418Z,3.30
2019-01-18T06:35:36.994Z,3.27
2019-01-18T06:38:41.416Z,3.30
2019-01-18T06:41:45.330Z,3.60
2019-01-18T06:44:48.736Z,3.43
2019-01-18T06:47:52.172Z,3.53
2019-01-18T06:50:55.584Z,3.97
2019-01-18T06:53:59.040Z,3.30
2019-01-18T06:57:02.443Z,3.37
2019-01-18T07:00:11.900Z,3.50
2019-01-18T07:03:15.324Z,3.33
2019-01-18T07:06:18.766Z,3.50
2019-01-18T07:09:22.200Z,3.60
2019-01-18T07:12:27.144Z,3.67
2019-01-18T07:15:33.264Z,3.83
2019-01-18T07:18:36.721Z,4.20
2019-01-18T07:21:40.195Z,4.43
2019-01-18T07:24:43.633Z,4.63
2019-01-18T07:27:47.159Z,4.30
2019-01-18T07:30:50.567Z,4.63
2019-01-18T07:33:54.009Z,4.80
2019-01-18T07:36:57.424Z,4.20
2019-01-18T07:40:00.864Z,4.80
2019-01-18T07:43:04.335Z,4.30
2019-01-18T07:46:07.770Z,3.87
2019-01-18T07:49:11.180Z,3.60
2019-01-18T07:52:15.872Z,4.27
2019-01-18T07:55:19.369Z,3.77
2019-01-18T07:58:22.809Z,3.67
2019-01-18T08:01:26.233Z,3.77
2019-01-18T08:04:29.708Z,3.20
2019-01-18T08:07:33.108Z,3.17
2019-01-18T08:10:37.560Z,3.57
2019-01-18T08:13:43.409Z,3.43
2019-01-18T08:16:46.809Z,3.80
2019-01-18T08:19:50.244Z,3.97
2019-01-18T08:22:54.293Z,3.93
2019-01-18T08:25:58.512Z,4.13
2019-01-18T08:29:01.931Z,3.17
2019-01-18T08:32:05.397Z,5.40
2019-01-18T08:35:11.161Z,5.13
2019-01-18T08:38:14.605Z,4.20
2019-01-18T08:41:18.017Z,4.27
2019-01-18T08:44:21.488Z,4.50
2019-01-18T08:47:24.888Z,4.50
2019-01-18T08:50:28.338Z,4.20
2019-01-18T08:53:31.740Z,4.63
2019-01-18T08:56:35.197Z,4.40
2019-01-18T08:59:38.625Z,3.87
2019-01-18T09:02:42.065Z,4.77
2019-01-18T09:05:45.528Z,3.97
2019-01-18T09:08:48.936Z,4.87
2019-01-18T09:11:52.359Z,4.07
2019-01-18T09:14:55.838Z,4.03
2019-01-18T09:17:59.344Z,4.70
2019-01-18T09:21:02.770Z,5.27
2019-01-18T09:24:06.182Z,4.60
2019-01-18T09:27:12.771Z,4.47
2019-01-18T09:30:21.113Z,5.10
2019-01-18T09:33:24.557Z,4.60
2019-01-18T09:36:27.972Z,4.27
2019-01-18T09:39:31.409Z,4.30
2019-01-18T09:42:34.941Z,4.77
2019-01-18T09:45:38.392Z,4.40
2019-01-18T09:48:41.799Z,4.43
2019-01-18T09:51:45.281Z,4.70
2019-01-18T09:54:48.721Z,4.67
2019-01-18T09:57:52.168Z,4.47
2019-01-18T10:00:55.582Z,4.73
2019-01-18T10:03:59.017Z,5.17
2019-01-18T10:07:02.421Z,4.80
2019-01-18T10:10:19.604Z,5.20
2019-01-18T10:13:23.036Z,4.77
2019-01-18T10:16:26.440Z,4.17
2019-01-18T10:19:29.880Z,5.13
2019-01-18T10:22:33.320Z,4.90
2019-01-18T10:25:36.745Z,5.70
2019-01-18T10:28:40.150Z,5.67
2019-01-18T10:31:43.656Z,5.90
2019-01-18T10:34:47.140Z,5.30
2019-01-18T10:37:50.633Z,5.23
2019-01-18T10:40:54.092Z,5.47
2019-01-18T10:43:57.527Z,4.93
2019-01-18T10:47:00.948Z,5.80
2019-01-18T10:50:10.190Z,5.53
2019-01-18T10:53:13.599Z,5.33
2019-01-18T10:56:17.044Z,6.13
2019-01-18T10:59:20.449Z,6.20
2019-01-18T11:02:23.904Z,5.80
2019-01-18T11:05:27.472Z,5.27
2019-01-18T11:08:30.907Z,5.73
2019-01-18T11:11:34.427Z,5.57
2019-01-18T11:14:37.832Z,5.93
2019-01-18T11:17:41.281Z,5.40
2019-01-18T11:20:51.136Z,5.43
2019-01-18T11:23:54.721Z,5.00
2019-01-18T11:26:58.132Z,5.17
2019-01-18T11:30:01.573Z,5.13
2019-01-18T11:33:05.244Z,4.93
2019-01-18T11:36:08.717Z,4.60
2019-01-18T11:39:12.131Z,4.53
2019-01-18T11:42:15.789Z,4.87
2019-01-18T11:45:19.748Z,4.77
2019-01-18T11:48:23.415Z,4.57
2019-01-18T11:51:27.125Z,4.00
2019-01-18T11:54:30.784Z,4.13
2019-01-18T11:57:34.382Z,4.20
2019-01-18T12:00:39.026Z,4.87
2019-01-18T12:03:42.614Z,4.90
2019-01-18T12:06:46.361Z,3.57
2019-01-18T12:09:50.818Z,4.30
2019-01-18T12:12:54.340Z,3.90
2019-01-18T12:15:59.914Z,4.20
2019-01-18T12:19:03.680Z,3.87
2019-01-18T12:22:07.520Z,3.90
2019-01-18T12:25:11.575Z,4.33
2019-01-18T12:28:15.004Z,4.30
2019-01-18T12:31:18.412Z,3.73
2019-01-18T12:34:21.830Z,3.53
2019-01-18T12:37:25.513Z,3.47
2019-01-18T12:40:29.248Z,3.77
2019-01-18T12:43:33.973Z,4.03
2019-01-18T12:46:37.619Z,3.80
2019-01-18T12:49:41.373Z,4.17
2019-01-18T12:52:45.000Z,4.43
2019-01-18T12:55:48.608Z,4.93
2019-01-18T12:58:56.467Z,4.63
2019-01-18T13:01:57.567Z,4.27
2019-01-18T13:05:01.166Z,3.33
2019-01-18T13:08:04.944Z,4.07
2019-01-18T13:11:08.400Z,4.50
2019-01-18T13:14:11.829Z,3.83
2019-01-18T13:17:15.360Z,4.00
2019-01-18T13:20:18.760Z,4.27
2019-01-18T13:23:22.212Z,4.30
2019-01-18T13:26:26.623Z,4.43
2019-01-18T13:29:30.056Z,4.27
2019-01-18T13:32:33.456Z,3.80
2019-01-18T13:35:36.879Z,3.70
2019-01-18T13:38:40.355Z,3.87
2019-01-18T13:41:43.782Z,4.10
2019-01-18T13:44:47.210Z,4.03
2019-01-18T13:47:50.615Z,3.90
2019-01-18T13:50:54.044Z,4.30
2019-01-18T13:53:57.476Z,3.63
2019-01-18T13:57:00.949Z,3.70
2019-01-18T14:00:07.714Z,3.90
2019-01-18T14:03:11.173Z,3.77
2019-01-18T14:06:14.624Z,2.90
2019-01-18T14:09:18.031Z,4.30
2019-01-18T14:12:21.463Z,4.83
2019-01-18T14:15:25.888Z,6.80
2019-01-18T14:18:29.313Z,5.23
2019-01-18T14:21:32.773Z,3.60
2019-01-18T14:24:36.185Z,3.93
2019-01-18T14:27:39.612Z,4.63
2019-01-18T14:30:43.081Z,4.13
2019-01-18T14:33:46.481Z,5.13
2019-01-18T14:36:49.913Z,5.03
2019-01-18T14:39:53.349Z,4.80
2019-01-18T14:42:57.612Z,5.10
2019-01-18T14:46:01.022Z,5.00
2019-01-18T14:49:04.477Z,4.50
2019-01-18T14:52:07.880Z,4.93
2019-01-18T14:55:11.485Z,4.80
2019-01-18T14:58:14.957Z,4.23
2019-01-18T15:01:18.436Z,3.93
2019-01-18T15:04:21.835Z,4.63
2019-01-18T15:07:25.264Z,4.20
2019-01-18T15:10:28.780Z,4.80
2019-01-18T15:13:33.165Z,3.80
2019-01-18T15:16:36.587Z,4.33
2019-01-18T15:19:40.026Z,3.50
2019-01-18T15:22:43.496Z,3.87
2019-01-18T15:25:47.041Z,4.03
2019-01-18T15:28:50.554Z,3.83
2019-01-18T15:31:54.098Z,5.73
2019-01-18T15:34:57.781Z,4.17
2019-01-18T15:38:01.180Z,4.57
2019-01-18T15:41:04.701Z,4.33
2019-01-18T15:44:08.136Z,4.33
2019-01-18T15:47:11.560Z,4.57
2019-01-18T15:50:26.384Z,4.47
2019-01-18T15:53:29.813Z,4.10
2019-01-18T15:56:33.330Z,4.23
2019-01-18T15:59:36.735Z,4.50
2019-01-18T16:02:40.171Z,4.23
2019-01-18T16:05:43.676Z,3.70
2019-01-18T16:08:47.120Z,5.27
2019-01-18T16:11:50.524Z,3.80
2019-01-18T16:14:53.955Z,3.83
2019-01-18T16:17:57.375Z,4.17
2019-01-18T16:21:00.814Z,3.80
2019-01-18T16:24:04.480Z,3.27
2019-01-18T16:27:07.905Z,4.93
2019-01-18T16:30:16.607Z,3.80
2019-01-18T16:33:23.512Z,4.70
2019-01-18T16:36:25.409Z,4.17
2019-01-18T16:39:28.877Z,3.83
2019-01-18T16:42:32.288Z,3.70
2019-01-18T16:45:35.716Z,4.40
2019-01-18T16:48:39.147Z,4.93
2019-01-18T16:51:42.588Z,4.80
2019-01-18T16:54:46.040Z,3.50
2019-01-18T16:57:49.483Z,3.50
2019-01-18T17:00:55.932Z,3.10
2019-01-18T17:03:59.352Z,2.97
2019-01-18T17:07:02.784Z,3.20
2019-01-18T17:10:09.300Z,2.80
2019-01-18T17:13:12.739Z,3.13
2019-01-18T17:16:16.207Z,2.47
2019-01-18T17:19:19.624Z,2.60
2019-01-18T17:22:23.068Z,2.23
2019-01-18T17:25:26.504Z,2.53
2019-01-18T17:28:29.915Z,4.60
2019-01-18T17:31:33.352Z,5.03
2019-01-18T17:34:36.787Z,5.03
2019-01-18T17:37:40.677Z,3.93
2019-01-18T17:40:47.183Z,2.60
2019-01-18T17:43:53.691Z,2.87
2019-01-18T17:47:11.988Z,3.00
2019-01-18T17:50:21.195Z,2.50
2019-01-18T17:53:33.712Z,2.27
2019-01-18T17:57:05.389Z,2.53
2019-01-18T18:00:32.685Z,2.17
2019-01-18T18:03:43.636Z,2.53
2019-01-18T18:07:10.449Z,2.27
2019-01-18T18:10:22.700Z,4.37
2019-01-18T18:13:44.368Z,3.77
2019-01-18T18:16:59.804Z,3.97
2019-01-18T18:20:39.276Z,2.33
2019-01-18T18:23:48.621Z,2.80
2019-01-18T18:27:11.651Z,3.13
2019-01-18T18:30:21.121Z,2.43
2019-01-18T18:34:00.355Z,2.50
2019-01-18T18:37:18.424Z,2.77
2019-01-18T18:40:25.239Z,4.97
2019-01-18T18:43:37.504Z,7.97
2019-01-18T18:46:55.744Z,4.30
2019-01-18T18:50:24.590Z,2.67
2019-01-18T18:53:31.098Z,3.17
2019-01-18T18:56:49.295Z,2.40
2019-01-18T19:00:13.425Z,2.70
2019-01-18T19:03:37.631Z,2.90
2019-01-18T19:06:58.304Z,2.60
2019-01-18T19:10:07.424Z,2.20
2019-01-18T19:13:28.053Z,2.33
2019-01-18T19:16:49.517Z,2.50
2019-01-18T19:20:23.017Z,2.70
2019-01-18T19:23:41.152Z,2.13
2019-01-18T19:26:53.454Z,2.20
2019-01-18T19:30:02.692Z,2.40
2019-01-18T19:33:14.824Z,3.30
2019-01-18T19:36:36.255Z,3.60
2019-01-18T19:39:45.399Z,1.90
2019-01-18T19:43:03.480Z,2.10
2019-01-18T19:46:22.037Z,1.97
2019-01-18T19:49:31.392Z,2.17
2019-01-18T19:52:46.821Z,2.43
2019-01-18T19:55:59.213Z,2.63
2019-01-18T19:59:26.575Z,2.40
2019-01-18T20:02:33.092Z,2.60
2019-01-18T20:05:42.492Z,2.30
2019-01-18T20:08:51.557Z,3.57
2019-01-18T20:12:04.101Z,3.40
2019-01-18T20:15:13.418Z,2.57
2019-01-18T20:18:25.429Z,2.30
2019-01-18T20:21:49.063Z,2.43
2019-01-18T20:25:16.450Z,2.03
2019-01-18T20:28:25.511Z,1.90
2019-01-18T20:31:37.769Z,1.60
2019-01-18T20:34:59.225Z,2.57
2019-01-18T20:38:17.327Z,2.17
2019-01-18T20:41:40.108Z,1.87
2019-01-18T20:45:11.819Z,2.00
2019-01-18T20:48:30.172Z,2.30
2019-01-18T20:51:39.744Z,1.90
2019-01-18T20:54:51.908Z,2.30
2019-01-18T20:58:12.931Z,2.30
2019-01-18T21:01:38.854Z,1.73
2019-01-18T21:05:07.749Z,2.20
2019-01-18T21:08:17.186Z,1.90
2019-01-18T21:11:28.905Z,1.73
2019-01-18T21:14:51.817Z,2.60
2019-01-18T21:18:04.108Z,2.20
2019-01-18T21:21:13.366Z,1.97
2019-01-18T21:24:39.293Z,1.90
2019-01-18T21:27:45.825Z,2.27
2019-01-18T21:31:10.768Z,2.30
2019-01-18T21:34:36.703Z,2.00
2019-01-18T21:37:43.216Z,2.47
2019-01-18T21:41:18.323Z,2.00
2019-01-18T21:44:36.601Z,2.30
2019-01-18T21:47:51.782Z,1.50
2019-01-18T21:51:13.290Z,2.20
2019-01-18T21:54:46.875Z,2.87
2019-01-18T21:58:02.025Z,2.00
2019-01-18T22:01:20.233Z,2.37
2019-01-18T22:04:26.747Z,2.30
2019-01-18T22:07:52.493Z,2.50
2019-01-18T22:11:01.948Z,2.10
2019-01-18T22:14:23.313Z,1.80
2019-01-18T22:17:59.632Z,2.13
2019-01-18T22:21:23.930Z,2.10
2019-01-18T22:24:48.303Z,1.80
2019-01-18T22:28:11.054Z,1.60
2019-01-18T22:31:29.224Z,1.90
2019-01-18T22:34:47.927Z,1.70
2019-01-18T22:38:03.328Z,2.07
2019-01-18T22:41:15.613Z,3.17
2019-01-18T22:44:46.065Z,1.83
2019-01-18T22:47:55.468Z,1.67
2019-01-18T22:51:10.642Z,1.67
2019-01-18T22:54:19.886Z,2.73
2019-01-18T22:57:26.402Z,2.10
2019-01-18T23:00:55.244Z,2.27
2019-01-18T23:04:25.501Z,2.07
2019-01-18T23:07:40.934Z,1.37
2019-01-18T23:11:01.883Z,1.90
2019-01-18T23:14:24.872Z,2.37
2019-01-18T23:17:31.388Z,2.30
2019-01-18T23:21:03.208Z,2.10
2019-01-18T23:24:18.434Z,1.97
2019-01-18T23:27:36.550Z,2.30
2019-01-18T23:30:45.968Z,1.90
2019-01-18T23:33:58.316Z,1.63
2019-01-18T23:37:13.427Z,1.80
2019-01-18T23:40:42.392Z,1.90
2019-01-18T23:43:51.381Z,1.70
2019-01-18T23:47:06.752Z,1.37
2019-01-18T23:50:15.913Z,1.70
2019-01-18T23:53:25.244Z,1.60
2019-01-18T23:56:40.368Z,1.67
2019-01-18T23:59:58.593Z,1.40
